Flight Track Log - Related Links

Times and Time Zones

All times are in EDT time to prevent confusion due to time zone crossing. See the NKS971 flight status page for this flight to view local times or setup timezone preferences in your user account.


Time Position Orientation Groundspeed Altitude Reporting Facility
EDT Latitude Longitude Course Direction KTS MPH feet Rate Location/Type
Sat 12:37:32 AM 32.8370 -97.0330 190° South 217 250 2,300  Level FlightAware ADS-B
Sat 12:38:02 AM 32.8040 -97.0390 189° South 249 287 3,400 2,533 Climbing FlightAware ADS-B
Sat 12:38:17 AM 32.7860 -97.0420 188° South 256 295 4,200 3,000 Climbing FlightAware ADS-B
Sat 12:38:42 AM 32.7560 -97.0470 188° South 269 310 5,400 2,727 Climbing FlightAware ADS-B
Sat 12:39:12 AM 32.7210 -97.0610 199° South 277 319 6,700 2,667 Climbing FlightAware ADS-B
Sat 12:39:27 AM 32.7100 -97.0790 234° Southwest 277 319 7,400 2,600 Climbing FlightAware ADS-B
Sat 12:39:42 AM 32.7060 -97.0990 257° West 277 319 8,000 3,000 Climbing FlightAware ADS-B
Sat 12:40:07 AM 32.7090 -97.1380 275° West 277 319 9,400 2,743 Climbing FlightAware ADS-B
Sat 12:40:52 AM 32.7150 -97.2080 276° West 296 341 11,200 1,835 Climbing FlightAware ADS-B
Sat 12:41:32 AM 32.7220 -97.2740 277° West 339 390 12,000 1,800 Climbing FlightAware ADS-B
Sat 12:42:12 AM 32.7290 -97.3500 276° West 347 399 13,600 2,475 Climbing FlightAware ADS-B
Sat 12:42:52 AM 32.7370 -97.4300 277° West 354 407 15,300 2,400 Climbing FlightAware ADS-B
Sat 12:43:37 AM 32.7450 -97.5120 277° West 357 411 17,000 2,259 Climbing FlightAware ADS-B
Sat 12:44:17 AM 32.7530 -97.5950 277° West 366 421 18,500 2,047 Climbing FlightAware ADS-B
Sat 12:45:02 AM 32.7610 -97.6840 276° West 372 428 19,900 1,835 Climbing FlightAware ADS-B
Sat 12:45:42 AM 32.7690 -97.7680 276° West 378 435 21,100 1,725 Climbing FlightAware ADS-B
Sat 12:46:22 AM 32.7770 -97.8510 277° West 386 444 22,200 1,624 Climbing FlightAware ADS-B
Sat 12:47:07 AM 32.7860 -97.9430 277° West 389 448 23,400 1,200 Climbing FlightAware ADS-B
Sat 12:47:47 AM 32.7940 -98.0270 276° West 390 449 23,900 1,482 Climbing FlightAware ADS-B
Sat 12:48:32 AM 32.8030 -98.1340 276° West 400 460 25,500 1,271 Climbing FlightAware ADS-B
Sat 12:49:12 AM 32.8100 -98.2100 276° West 402 463 25,700 1,275 Climbing FlightAware ADS-B
Sat 12:49:52 AM 32.8190 -98.3060 276° West 409 471 27,200 1,694 Climbing FlightAware ADS-B
Sat 12:50:37 AM 32.8280 -98.4090 276° West 413 475 28,100 635 Climbing FlightAware ADS-B
Sat 12:51:17 AM 32.8350 -98.4890 276° West 413 475 28,100  Level FlightAware ADS-B
Sat 12:51:57 AM 32.8420 -98.5650 276° West 413 475 28,100 1,765 Level FlightAware ADS-B
Sat 12:52:42 AM 32.8530 -98.6940 276° West 415 478 30,600 2,467 Climbing FlightAware ADS-B
Sat 12:53:27 AM 32.8620 -98.7960 276° West 407 468 31,800 1,341 Climbing FlightAware ADS-B
Sat 12:54:07 AM 32.8700 -98.8860 276° West 407 468 32,500 1,129 Climbing FlightAware ADS-B
Sat 12:54:52 AM 32.8780 -98.9830 276° West 403 464 33,400 1,059 Climbing FlightAware ADS-B
Sat 12:55:32 AM 32.8850 -99.0710 275° West 394 453 34,000 450 Climbing FlightAware ADS-B
Sat 12:56:12 AM 32.8930 -99.1590 276° West 402 463 34,000  Level FlightAware ADS-B
Sat 12:56:57 AM 32.9010 -99.2600 275° West 408 470 34,000  Level FlightAware ADS-B
Sat 12:57:37 AM 32.9080 -99.3450 276° West 406 467 34,000  Level FlightAware ADS-B
Sat 12:58:22 AM 32.9160 -99.4480 275° West 406 467 34,000 -71 Level FlightAware ADS-B
Sat 12:59:02 AM 32.9230 -99.5370 275° West 406 467 33,900  Descending FlightAware ADS-B
Sat 12:59:42 AM 32.9300 -99.6270 275° West 408 470 34,000 71 Climbing FlightAware ADS-B
Sat 01:00:27 AM 32.9380 -99.7210 276° West 411 473 34,000  Level FlightAware ADS-B
Sat 01:01:12 AM 32.9450 -99.8210 275° West 412 474 34,000  Level FlightAware ADS-B
Sat 01:02:02 AM 32.9520 -99.9170 275° West 412 474 34,000  Level FlightAware ADS-B
Sat 01:02:42 AM 32.9580 -99.9940 275° West 412 474 34,000  Level FlightAware ADS-B
Sat 01:03:27 AM 32.9690 -100.1300 276° West 411 473 34,000  Level FlightAware ADS-B
Sat 01:04:22 AM 32.9770 -100.2470 275° West 411 473 34,000  Level FlightAware ADS-B
Sat 01:05:02 AM 32.9820 -100.3240 274° West 411 473 34,000  Level FlightAware ADS-B
Sat 01:05:42 AM 32.9860 -100.4010 274° West 411 473 34,000  Level FlightAware ADS-B
Sat 01:06:32 AM 32.9920 -100.4970 274° West 411 473 34,000  Level FlightAware ADS-B
Sat 01:07:12 AM 32.9960 -100.5740 274° West 411 473 34,000  Level FlightAware ADS-B
Sat 01:07:52 AM 33.0010 -100.6510 274° West 411 473 34,000  Level FlightAware ADS-B
Sat 01:08:32 AM 33.0050 -100.7280 274° West 411 473 34,000  Level FlightAware ADS-B
Sat 01:09:12 AM 33.0100 -100.8050 274° West 411 473 34,000  Level FlightAware ADS-B
Sat 01:10:02 AM 33.0160 -100.9010 274° West 411 473 34,000  Level FlightAware ADS-B
Sat 01:10:42 AM 33.0200 -100.9780 274° West 411 473 34,000  Level FlightAware ADS-B
Sat 01:11:22 AM 33.0250 -101.0550 274° West 411 473 34,000  Level FlightAware ADS-B
Sat 01:12:02 AM 33.0290 -101.1320 274° West 411 473 34,000  Level FlightAware ADS-B
Sat 01:12:42 AM 33.0340 -101.2090 274° West 411 473 34,000  Level FlightAware ADS-B
Sat 01:13:27 AM 33.0600 -101.4750 277° West 404 465 34,000  Level FlightAware ADS-B
Sat 01:14:07 AM 33.0660 -101.5620 275° West 401 461 34,000  Level FlightAware ADS-B
Sat 01:14:52 AM 33.0710 -101.6540 274° West 401 461 34,000 200 Level FlightAware ADS-B
Sat 01:15:37 AM 33.0780 -101.7610 274° West 395 455 34,300 847 Climbing FlightAware ADS-B
Sat 01:16:17 AM 33.0840 -101.8470 275° West 386 444 35,200 825 Climbing FlightAware ADS-B
Sat 01:16:57 AM 33.0880 -101.9270 273° West 386 444 35,400 565 Climbing FlightAware ADS-B
Sat 01:17:42 AM 33.0950 -102.0350 274° West 395 455 36,000 480 Climbing FlightAware ADS-B
Sat 01:18:12 AM 33.0990 -102.0980 274° West 394 453 36,000  Level FlightAware ADS-B
Sat 01:19:07 AM 33.1060 -102.2170 274° West 394 453 36,000  Level FlightAware ADS-B
Sat 01:19:42 AM 33.1100 -102.2850 274° West 394 453 36,000  Level FlightAware ADS-B
Sat 01:20:37 AM 33.1160 -102.4030 274° West 392 451 36,000  Level FlightAware ADS-B
Sat 01:21:42 AM 33.1240 -102.5420 274° West 395 455 36,000  Level FlightAware ADS-B
Sat 01:22:22 AM 33.1270 -102.6160 273° West 395 455 36,000  Level FlightAware ADS-B
Sat 01:23:02 AM 33.1300 -102.6900 273° West 395 455 36,000  Level FlightAware ADS-B
Sat 01:23:42 AM 33.1340 -102.7640 274° West 395 455 36,000  Level FlightAware ADS-B
Sat 01:24:22 AM 33.1370 -102.8380 273° West 395 455 36,000  Level FlightAware ADS-B
Sat 01:25:02 AM 33.1400 -102.9120 273° West 395 455 36,000  Level FlightAware ADS-B
Sat 01:25:52 AM 33.1440 -103.0050 273° West 395 455 36,000  Level FlightAware ADS-B
Sat 01:26:32 AM 33.1470 -103.0790 273° West 395 455 36,000  Level FlightAware ADS-B
Sat 01:27:12 AM 33.1510 -103.1530 274° West 395 455 36,000  Level FlightAware ADS-B
Sat 01:27:52 AM 33.1540 -103.2270 273° West 395 455 36,000  Level FlightAware ADS-B
Sat 01:28:42 AM 33.1580 -103.3200 273° West 395 455 36,000  Level FlightAware ADS-B
Sat 01:29:22 AM 33.1610 -103.3940 273° West 395 455 36,000  Level FlightAware ADS-B
Sat 01:30:02 AM 33.1640 -103.4680 273° West 395 455 36,000  Level FlightAware ADS-B
Sat 01:30:42 AM 33.1680 -103.5420 274° West 395 455 36,000  Level FlightAware ADS-B
Sat 01:31:13 AM 33.1892 -103.7619 274° West 384 442 36,000  Level Albuquerque Center
Sat 01:32:14 AM 33.1939 -103.8911 273° West 388 447 36,000  Level Albuquerque Center
Sat 01:33:14 AM 33.1992 -104.0217 273° West 393 452 36,000  Level Albuquerque Center
Sat 01:34:15 AM 33.2042 -104.1522 273° West 394 453 36,000 149 Level Albuquerque Center
Sat 01:35:15 AM 33.2092 -104.2833 273° West 395 455 36,300 446 Climbing Albuquerque Center
Sat 01:36:16 AM 33.2147 -104.3981 273° West 397 457 36,900 793 Climbing Albuquerque Center
Sat 01:37:16 AM 33.2194 -104.5289 273° West 397 457 37,900 545 Climbing Albuquerque Center
Sat 01:38:17 AM 33.2228 -104.6728 272° West 381 438 38,000 50 Climbing Albuquerque Center
Sat 01:39:17 AM 33.2281 -104.8078 273° West 378 435 38,000  Level Albuquerque Center
Sat 01:40:18 AM 33.2328 -104.9333 273° West 378 435 38,000  Level Albuquerque Center
Sat 01:41:18 AM 33.2381 -105.0589 273° West 379 436 38,000  Level Albuquerque Center
Sat 01:42:19 AM 33.2428 -105.1836 273° West 379 436 38,000  Level Albuquerque Center
Sat 01:43:19 AM 33.2461 -105.3092 272° West 379 436 38,000  Level Albuquerque Center
Sat 01:44:20 AM 33.2497 -105.4353 272° West 380 437 38,000  Level Albuquerque Center
Sat 01:45:20 AM 33.2539 -105.5633 272° West 385 443 38,000  Level Albuquerque Center
Sat 01:46:21 AM 33.2592 -105.6864 273° West 392 451 38,000  Level Albuquerque Center
Sat 01:47:21 AM 33.2636 -105.8167 272° West 394 453 38,000  Level Albuquerque Center
Sat 01:48:22 AM 33.2667 -105.9467 272° West 394 453 38,000 -50 Level Albuquerque Center
Sat 01:49:22 AM 33.2706 -106.0753 272° West 391 450 37,900 -50 Descending Albuquerque Center
Sat 01:50:23 AM 33.2733 -106.2033 272° West 388 447 37,900 50 Level Albuquerque Center
Sat 01:51:23 AM 33.2767 -106.3328 272° West 390 449 38,000  Climbing Albuquerque Center
Sat 01:52:23 AM 33.2811 -106.4611 272° West 390 449 37,900  Descending Albuquerque Center
Sat 01:53:24 AM 33.2833 -106.5889 271° West 388 447 38,000 50 Climbing Albuquerque Center
Sat 01:54:24 AM 33.2867 -106.7181 272° West 389 448 38,000 -50 Level Albuquerque Center
Sat 01:55:25 AM 33.2892 -106.8458 271° West 389 448 37,900 -50 Descending Albuquerque Center
Sat 01:56:25 AM 33.2914 -106.9697 271° West 382 440 37,900 50 Level Albuquerque Center
Sat 01:57:26 AM 33.2944 -107.0975 272° West 383 441 38,000 15 Climbing Albuquerque Center
Sat 02:02:57 AM 33.3060 -107.8250 272° West 384 442 38,000  Level FlightAware ADS-B
Sat 02:03:42 AM 33.3060 -107.9100 270° West 384 442 38,000  Level FlightAware ADS-B
Sat 02:04:22 AM 33.3060 -107.9820 270° West 384 442 38,000  Level FlightAware ADS-B
Sat 02:05:02 AM 33.3060 -108.0540 270° West 384 442 38,000  Level FlightAware ADS-B
Sat 02:05:57 AM 33.3100 -108.1990 272° West 378 435 38,000  Level FlightAware ADS-B
Sat 02:06:42 AM 33.3120 -108.3000 271° West 376 433 38,000  Level FlightAware ADS-B
Sat 02:07:17 AM 33.3120 -108.3650 270° West 376 433 38,000  Level FlightAware ADS-B
Sat 02:08:02 AM 33.3130 -108.4600 271° West 378 435 38,000  Level FlightAware ADS-B
Sat 02:08:42 AM 33.3130 -108.5310 270° West 378 435 38,000  Level FlightAware ADS-B
Sat 02:09:22 AM 33.3130 -108.6020 270° West 378 435 38,000  Level FlightAware ADS-B
Sat 02:10:12 AM 33.3130 -108.6910 270° West 378 435 38,000  Level FlightAware ADS-B
Sat 02:10:52 AM 33.3130 -108.7620 270° West 378 435 38,000  Level FlightAware ADS-B
Sat 02:11:32 AM 33.3130 -108.8330 270° West 378 435 38,000  Level FlightAware ADS-B
Sat 02:12:32 AM 33.3180 -109.0050 272° West 367 422 38,000  Level FlightAware ADS-B
Sat 02:13:12 AM 33.3180 -109.0750 270° West 365 420 38,000  Level FlightAware ADS-B
Sat 02:13:57 AM 33.3180 -109.1710 270° West 367 422 38,000  Level FlightAware ADS-B
Sat 02:14:32 AM 33.3190 -109.2440 271° West 369 425 38,000  Level FlightAware ADS-B
Sat 02:15:17 AM 33.3190 -109.3330 270° West 370 426 38,000 -400 Level FlightAware ADS-B
Sat 02:16:02 AM 33.3190 -109.4450 270° West 370 426 37,400 -914 Descending FlightAware ADS-B
Sat 02:17:02 AM 33.3190 -109.5680 270° West 377 434 36,400 -1,000 Descending FlightAware ADS-B
Sat 02:17:32 AM 33.3190 -109.6310 270° West 381 438 35,900 -1,371 Descending FlightAware ADS-B
Sat 02:18:12 AM 33.3190 -109.6910 270° West 384 442 34,800 -2,580 Descending FlightAware ADS-B
Sat 02:19:12 AM 33.3190 -109.8290 270° West 399 459 31,600 -2,782 Descending FlightAware ADS-B
Sat 02:20:02 AM 33.3190 -109.9280 270° West 399 459 29,700 -2,329 Descending FlightAware ADS-B
Sat 02:20:37 AM 33.3190 -110.0000 270° West 397 457 28,300 -2,533 Descending FlightAware ADS-B
Sat 02:21:32 AM 33.3180 -110.1280 269° West 394 453 25,900 -2,589 Descending FlightAware ADS-B
Sat 02:22:12 AM 33.3180 -110.2130 270° West 382 440 24,200 -2,400 Descending FlightAware ADS-B
Sat 02:23:02 AM 33.3170 -110.3140 269° West 373 429 22,300 -2,471 Descending FlightAware ADS-B
Sat 02:23:37 AM 33.3170 -110.3950 270° West 368 423 20,700 -2,471 Descending FlightAware ADS-B
Sat 02:24:27 AM 33.3160 -110.4930 269° West 360 414 18,800 -2,267 Descending FlightAware ADS-B
Sat 02:25:07 AM 33.3150 -110.5710 269° West 354 407 17,300 -1,976 Descending FlightAware ADS-B
Sat 02:25:52 AM 33.3150 -110.6430 270° West 347 399 16,000 -2,160 Descending FlightAware ADS-B
Sat 02:26:22 AM 33.3140 -110.7160 269° West 340 391 14,600 -2,080 Descending FlightAware ADS-B
Sat 02:27:07 AM 33.3140 -110.7890 270° West 331 381 13,400 -1,642 Descending FlightAware ADS-B
Sat 02:27:57 AM 33.3130 -110.8890 269° West 323 372 12,000 -933 Descending FlightAware ADS-B
Sat 02:28:37 AM 33.3120 -110.9760 269° West 315 362 12,000 -1,059 Level FlightAware ADS-B
Sat 02:29:22 AM 33.3110 -111.0550 269° West 314 361 10,500 -1,412 Descending FlightAware ADS-B
Sat 02:30:02 AM 33.3100 -111.1230 269° West 291 335 10,000 -375 Descending FlightAware ADS-B
Sat 02:30:42 AM 33.3090 -111.1850 269° West 278 320 10,000  Level FlightAware ADS-B
Sat 02:31:27 AM 33.3090 -111.2530 270° West 279 321 10,000  Level FlightAware ADS-B
Sat 02:32:07 AM 33.3080 -111.3140 269° West 278 320 10,000 -257 Level FlightAware ADS-B
Sat 02:32:37 AM 33.3070 -111.3590 268° West 273 314 9,700 -1,745 Descending FlightAware ADS-B
Sat 02:33:02 AM 33.3070 -111.4000 270° West 281 323 8,400 -1,964 Descending FlightAware ADS-B
Sat 02:33:32 AM 33.3060 -111.4450 268° West 256 295 7,900 -900 Descending FlightAware ADS-B
Sat 02:34:02 AM 33.3050 -111.4810 268° West 237 273 7,500 -943 Descending FlightAware ADS-B
Sat 02:34:42 AM 33.3110 -111.5310 278° West 207 238 6,800 -1,200 Descending FlightAware ADS-B
Sat 02:35:12 AM 33.3260 -111.5600 302° West 193 222 6,100 -1,636 Descending FlightAware ADS-B
Sat 02:35:37 AM 33.3420 -111.5770 318° Northwest 191 220 5,300 -1,745 Descending FlightAware ADS-B
Sat 02:36:07 AM 33.3600 -111.5980 316° Northwest 185 213 4,500 -1,636 Descending FlightAware ADS-B
Sat 02:36:32 AM 33.3740 -111.6160 313° West 183 211 3,800 -1,745 Descending FlightAware ADS-B
Sat 02:37:02 AM 33.3900 -111.6420 306° West 185 213 2,900 -1,333 Descending FlightAware ADS-B
Sat 02:37:17 AM 33.3920 -111.6560 280° West 177 204 2,800 -600 Descending FlightAware ADS-B
Sat 02:37:42 AM 33.3870 -111.6750 253° West 159 183 2,500 -450 Descending FlightAware ADS-B
Sat 02:37:57 AM 33.3800 -111.6870 235° Southwest 140 161 2,500 -400 Level FlightAware ADS-B
Sat 02:38:12 AM 33.3740 -111.6950 228° Southwest 145 167 2,300 -436 Descending FlightAware ADS-B
Sat 02:38:52 AM 33.3560 -111.7020 198° South 142 163 2,100 -360 Descending FlightAware ADS-B
Sat 02:39:02 AM 33.3480 -111.7030 186° South 143 165 2,000 -533 Descending FlightAware ADS-B
Sat 02:39:37 AM 33.3300 -111.6880 145° Southeast 150 173 1,700 -600 Descending FlightAware ADS-B
Sat 02:40:02 AM 33.3190 -111.6750 135° Southeast 142 163 1,400 -360 Descending FlightAware ADS-B
Sat 02:40:27 AM 33.3080 -111.6620 135° Southeast 142 163 1,400 -140 Level FlightAware ADS-B
Sat 02:40:45 AM 33.3008 -111.6511 135° Southeast 144 166 1,300 -333 Descending Albuquerque Center

Login

Don't have an account? Register now (free) for customized features, flight alerts, and more!